sensor_id;sensor_type;location;lat;lon;timestamp;P1;durP1;ratioP1;P2;durP2;ratioP2
3718;SDS011;1875;52.492;6.860;2022-11-13T00:01:34;247.40;;;70.67;;
3718;SDS011;1875;52.492;6.860;2022-11-13T00:04:02;255.47;;;72.77;;
3718;SDS011;1875;52.492;6.860;2022-11-13T00:06:29;223.20;;;59.03;;
3718;SDS011;1875;52.492;6.860;2022-11-13T00:08:59;237.27;;;65.43;;
3718;SDS011;1875;52.492;6.860;2022-11-13T00:11:27;215.30;;;58.83;;
3718;SDS011;1875;52.492;6.860;2022-11-13T00:13:55;241.60;;;64.40;;
3718;SDS011;1875;52.492;6.860;2022-11-13T00:16:22;228.27;;;61.17;;
3718;SDS011;1875;52.492;6.860;2022-11-13T00:18:50;226.27;;;59.47;;
3718;SDS011;1875;52.492;6.860;2022-11-13T00:21:19;237.90;;;65.83;;
3718;SDS011;1875;52.492;6.860;2022-11-13T00:23:48;238.20;;;67.57;;
3718;SDS011;1875;52.492;6.860;2022-11-13T00:26:18;226.03;;;59.67;;
3718;SDS011;1875;52.492;6.860;2022-11-13T00:28:50;268.47;;;79.07;;
3718;SDS011;1875;52.492;6.860;2022-11-13T00:31:19;231.60;;;64.93;;
3718;SDS011;1875;52.492;6.860;2022-11-13T00:33:47;248.60;;;66.03;;
3718;SDS011;1875;52.492;6.860;2022-11-13T00:36:35;250.70;;;68.87;;
3718;SDS011;1875;52.492;6.860;2022-11-13T00:39:03;246.97;;;70.07;;
3718;SDS011;1875;52.492;6.860;2022-11-13T00:41:32;244.00;;;65.67;;
3718;SDS011;1875;52.492;6.860;2022-11-13T00:44:00;249.33;;;70.97;;
3718;SDS011;1875;52.492;6.860;2022-11-13T00:46:29;219.43;;;61.87;;
3718;SDS011;1875;52.492;6.860;2022-11-13T00:48:56;254.17;;;69.57;;
3718;SDS011;1875;52.492;6.860;2022-11-13T00:51:24;207.17;;;54.10;;
3718;SDS011;1875;52.492;6.860;2022-11-13T00:53:52;233.70;;;66.10;;
3718;SDS011;1875;52.492;6.860;2022-11-13T00:56:19;249.10;;;69.67;;
3718;SDS011;1875;52.492;6.860;2022-11-13T00:58:48;230.17;;;65.43;;
3718;SDS011;1875;52.492;6.860;2022-11-13T01:01:17;236.80;;;68.57;;
3718;SDS011;1875;52.492;6.860;2022-11-13T01:03:45;252.03;;;66.53;;
3718;SDS011;1875;52.492;6.860;2022-11-13T01:06:14;210.27;;;52.50;;
3718;SDS011;1875;52.492;6.860;2022-11-13T01:08:43;268.80;;;76.97;;
3718;SDS011;1875;52.492;6.860;2022-11-13T01:11:12;232.47;;;63.63;;
3718;SDS011;1875;52.492;6.860;2022-11-13T01:13:42;212.73;;;55.77;;
3718;SDS011;1875;52.492;6.860;2022-11-13T01:16:12;223.77;;;61.57;;
3718;SDS011;1875;52.492;6.860;2022-11-13T01:18:40;232.40;;;64.70;;
3718;SDS011;1875;52.492;6.860;2022-11-13T01:21:09;240.13;;;65.33;;
3718;SDS011;1875;52.492;6.860;2022-11-13T01:23:37;228.27;;;64.83;;
3718;SDS011;1875;52.492;6.860;2022-11-13T01:26:06;232.87;;;65.43;;
3718;SDS011;1875;52.492;6.860;2022-11-13T01:28:34;252.50;;;73.30;;
3718;SDS011;1875;52.492;6.860;2022-11-13T01:31:03;211.67;;;56.97;;
3718;SDS011;1875;52.492;6.860;2022-11-13T01:33:33;232.87;;;64.57;;
3718;SDS011;1875;52.492;6.860;2022-11-13T01:36:01;241.20;;;67.30;;
3718;SDS011;1875;52.492;6.860;2022-11-13T01:38:30;243.90;;;67.40;;
3718;SDS011;1875;52.492;6.860;2022-11-13T01:41:02;245.40;;;68.87;;
3718;SDS011;1875;52.492;6.860;2022-11-13T01:43:31;209.23;;;53.07;;
3718;SDS011;1875;52.492;6.860;2022-11-13T01:48:49;216.87;;;59.87;;
3718;SDS011;1875;52.492;6.860;2022-11-13T01:51:20;231.03;;;63.20;;
3718;SDS011;1875;52.492;6.860;2022-11-13T01:53:50;207.10;;;52.73;;
3718;SDS011;1875;52.492;6.860;2022-11-13T01:56:19;249.33;;;66.50;;
3718;SDS011;1875;52.492;6.860;2022-11-13T01:58:48;237.03;;;69.30;;
3718;SDS011;1875;52.492;6.860;2022-11-13T02:01:19;214.47;;;55.63;;
3718;SDS011;1875;52.492;6.860;2022-11-13T02:03:48;205.43;;;52.77;;
3718;SDS011;1875;52.492;6.860;2022-11-13T02:06:16;233.50;;;62.57;;
3718;SDS011;1875;52.492;6.860;2022-11-13T02:08:43;239.10;;;66.50;;
3718;SDS011;1875;52.492;6.860;2022-11-13T02:11:11;233.97;;;61.73;;
3718;SDS011;1875;52.492;6.860;2022-11-13T02:13:39;239.27;;;68.47;;
3718;SDS011;1875;52.492;6.860;2022-11-13T02:16:07;231.17;;;63.50;;
3718;SDS011;1875;52.492;6.860;2022-11-13T02:18:35;218.70;;;56.40;;
3718;SDS011;1875;52.492;6.860;2022-11-13T02:21:08;234.07;;;65.00;;
3718;SDS011;1875;52.492;6.860;2022-11-13T02:23:42;233.13;;;62.47;;
3718;SDS011;1875;52.492;6.860;2022-11-13T02:26:14;231.60;;;61.97;;
3718;SDS011;1875;52.492;6.860;2022-11-13T02:28:43;263.87;;;74.77;;
3718;SDS011;1875;52.492;6.860;2022-11-13T02:31:12;245.50;;;66.80;;
3718;SDS011;1875;52.492;6.860;2022-11-13T02:33:40;250.43;;;68.10;;
3718;SDS011;1875;52.492;6.860;2022-11-13T02:36:07;241.20;;;63.73;;
3718;SDS011;1875;52.492;6.860;2022-11-13T02:38:36;262.07;;;73.07;;
3718;SDS011;1875;52.492;6.860;2022-11-13T02:41:04;260.67;;;70.70;;
3718;SDS011;1875;52.492;6.860;2022-11-13T02:43:34;220.50;;;57.37;;
3718;SDS011;1875;52.492;6.860;2022-11-13T02:46:02;245.87;;;65.20;;
3718;SDS011;1875;52.492;6.860;2022-11-13T02:48:30;204.20;;;50.23;;
3718;SDS011;1875;52.492;6.860;2022-11-13T02:50:57;260.23;;;71.70;;
3718;SDS011;1875;52.492;6.860;2022-11-13T02:53:25;238.77;;;65.30;;
3718;SDS011;1875;52.492;6.860;2022-11-13T02:55:53;220.30;;;60.47;;
3718;SDS011;1875;52.492;6.860;2022-11-13T02:58:20;224.37;;;62.37;;
3718;SDS011;1875;52.492;6.860;2022-11-13T03:00:49;241.00;;;68.50;;
3718;SDS011;1875;52.492;6.860;2022-11-13T03:03:17;246.47;;;71.07;;
3718;SDS011;1875;52.492;6.860;2022-11-13T03:06:05;213.70;;;55.57;;
3718;SDS011;1875;52.492;6.860;2022-11-13T03:08:32;241.47;;;69.07;;
3718;SDS011;1875;52.492;6.860;2022-11-13T03:11:05;220.23;;;59.10;;
3718;SDS011;1875;52.492;6.860;2022-11-13T03:13:33;254.13;;;70.70;;
3718;SDS011;1875;52.492;6.860;2022-11-13T03:16:09;208.43;;;53.93;;
3718;SDS011;1875;52.492;6.860;2022-11-13T03:18:39;266.83;;;75.13;;
3718;SDS011;1875;52.492;6.860;2022-11-13T03:21:07;240.70;;;63.33;;
3718;SDS011;1875;52.492;6.860;2022-11-13T03:23:36;210.97;;;55.10;;
3718;SDS011;1875;52.492;6.860;2022-11-13T03:26:04;232.43;;;62.33;;
3718;SDS011;1875;52.492;6.860;2022-11-13T03:28:33;232.27;;;62.23;;
3718;SDS011;1875;52.492;6.860;2022-11-13T03:31:01;215.93;;;56.10;;
3718;SDS011;1875;52.492;6.860;2022-11-13T03:33:31;231.43;;;64.80;;
3718;SDS011;1875;52.492;6.860;2022-11-13T03:35:59;241.80;;;63.30;;
3718;SDS011;1875;52.492;6.860;2022-11-13T03:38:27;251.13;;;70.03;;
3718;SDS011;1875;52.492;6.860;2022-11-13T03:40:55;246.87;;;68.20;;
3718;SDS011;1875;52.492;6.860;2022-11-13T03:43:23;231.20;;;64.03;;
3718;SDS011;1875;52.492;6.860;2022-11-13T03:45:50;213.77;;;56.53;;
3718;SDS011;1875;52.492;6.860;2022-11-13T03:48:18;253.53;;;70.00;;
3718;SDS011;1875;52.492;6.860;2022-11-13T03:50:50;244.73;;;68.47;;
3718;SDS011;1875;52.492;6.860;2022-11-13T03:53:19;241.93;;;66.27;;
3718;SDS011;1875;52.492;6.860;2022-11-13T03:55:47;230.23;;;63.20;;
3718;SDS011;1875;52.492;6.860;2022-11-13T03:58:15;245.40;;;69.53;;
3718;SDS011;1875;52.492;6.860;2022-11-13T04:00:42;227.90;;;65.97;;
3718;SDS011;1875;52.492;6.860;2022-11-13T04:03:10;237.27;;;68.50;;
3718;SDS011;1875;52.492;6.860;2022-11-13T04:05:38;242.53;;;68.33;;
3718;SDS011;1875;52.492;6.860;2022-11-13T04:08:07;240.37;;;64.40;;
3718;SDS011;1875;52.492;6.860;2022-11-13T04:10:35;217.17;;;57.70;;
3718;SDS011;1875;52.492;6.860;2022-11-13T04:13:03;252.50;;;70.53;;
3718;SDS011;1875;52.492;6.860;2022-11-13T04:15:31;234.90;;;62.73;;
3718;SDS011;1875;52.492;6.860;2022-11-13T04:17:58;250.67;;;71.27;;
3718;SDS011;1875;52.492;6.860;2022-11-13T04:20:26;218.43;;;58.07;;
3718;SDS011;1875;52.492;6.860;2022-11-13T04:22:54;232.70;;;65.33;;
3718;SDS011;1875;52.492;6.860;2022-11-13T04:25:23;208.70;;;54.57;;
3718;SDS011;1875;52.492;6.860;2022-11-13T04:27:51;222.73;;;59.47;;
3718;SDS011;1875;52.492;6.860;2022-11-13T04:30:19;253.97;;;70.10;;
3718;SDS011;1875;52.492;6.860;2022-11-13T04:32:47;246.70;;;69.73;;
3718;SDS011;1875;52.492;6.860;2022-11-13T04:35:14;247.23;;;67.97;;
3718;SDS011;1875;52.492;6.860;2022-11-13T04:37:42;272.33;;;81.90;;
3718;SDS011;1875;52.492;6.860;2022-11-13T04:40:10;249.93;;;71.13;;
3718;SDS011;1875;52.492;6.860;2022-11-13T04:42:40;255.93;;;67.00;;
3718;SDS011;1875;52.492;6.860;2022-11-13T04:45:16;265.60;;;73.83;;
3718;SDS011;1875;52.492;6.860;2022-11-13T04:47:44;249.77;;;70.13;;
3718;SDS011;1875;52.492;6.860;2022-11-13T04:50:13;228.27;;;63.27;;
3718;SDS011;1875;52.492;6.860;2022-11-13T04:52:41;250.33;;;66.93;;
3718;SDS011;1875;52.492;6.860;2022-11-13T04:55:10;241.03;;;73.73;;
3718;SDS011;1875;52.492;6.860;2022-11-13T04:57:38;220.40;;;62.00;;
3718;SDS011;1875;52.492;6.860;2022-11-13T05:00:08;219.27;;;58.03;;
3718;SDS011;1875;52.492;6.860;2022-11-13T05:02:36;242.93;;;69.70;;
3718;SDS011;1875;52.492;6.860;2022-11-13T05:05:04;242.53;;;68.43;;
3718;SDS011;1875;52.492;6.860;2022-11-13T05:07:32;217.50;;;62.43;;
3718;SDS011;1875;52.492;6.860;2022-11-13T05:10:00;250.97;;;66.80;;
3718;SDS011;1875;52.492;6.860;2022-11-13T05:12:27;247.80;;;67.93;;
3718;SDS011;1875;52.492;6.860;2022-11-13T05:14:56;235.03;;;63.93;;
3718;SDS011;1875;52.492;6.860;2022-11-13T05:17:24;245.40;;;68.87;;
3718;SDS011;1875;52.492;6.860;2022-11-13T05:19:52;244.20;;;69.77;;
3718;SDS011;1875;52.492;6.860;2022-11-13T05:22:19;233.50;;;66.83;;
3718;SDS011;1875;52.492;6.860;2022-11-13T05:24:47;234.97;;;64.43;;
3718;SDS011;1875;52.492;6.860;2022-11-13T05:27:15;250.33;;;67.93;;
3718;SDS011;1875;52.492;6.860;2022-11-13T05:29:43;248.00;;;68.97;;
3718;SDS011;1875;52.492;6.860;2022-11-13T05:32:12;244.50;;;66.97;;
3718;SDS011;1875;52.492;6.860;2022-11-13T05:34:40;236.83;;;66.40;;
3718;SDS011;1875;52.492;6.860;2022-11-13T05:37:07;246.57;;;65.60;;
3718;SDS011;1875;52.492;6.860;2022-11-13T05:39:35;242.10;;;65.30;;
3718;SDS011;1875;52.492;6.860;2022-11-13T05:42:03;213.47;;;58.23;;
3718;SDS011;1875;52.492;6.860;2022-11-13T05:44:31;236.33;;;63.67;;
3718;SDS011;1875;52.492;6.860;2022-11-13T05:46:59;224.50;;;64.33;;
3718;SDS011;1875;52.492;6.860;2022-11-13T05:49:28;249.00;;;70.73;;
3718;SDS011;1875;52.492;6.860;2022-11-13T05:51:56;227.53;;;63.73;;
3718;SDS011;1875;52.492;6.860;2022-11-13T05:54:23;236.97;;;63.03;;
3718;SDS011;1875;52.492;6.860;2022-11-13T05:56:51;216.93;;;60.63;;
3718;SDS011;1875;52.492;6.860;2022-11-13T05:59:19;240.07;;;63.67;;
3718;SDS011;1875;52.492;6.860;2022-11-13T06:01:46;195.10;;;49.23;;
3718;SDS011;1875;52.492;6.860;2022-11-13T06:04:14;240.10;;;65.83;;
3718;SDS011;1875;52.492;6.860;2022-11-13T06:06:43;221.93;;;62.43;;
3718;SDS011;1875;52.492;6.860;2022-11-13T06:09:12;225.77;;;66.40;;
3718;SDS011;1875;52.492;6.860;2022-11-13T06:11:42;244.67;;;75.47;;
3718;SDS011;1875;52.492;6.860;2022-11-13T06:14:10;242.17;;;69.73;;
3718;SDS011;1875;52.492;6.860;2022-11-13T06:16:38;238.90;;;64.90;;
3718;SDS011;1875;52.492;6.860;2022-11-13T06:19:07;208.53;;;58.27;;
3718;SDS011;1875;52.492;6.860;2022-11-13T06:21:37;244.70;;;70.97;;
3718;SDS011;1875;52.492;6.860;2022-11-13T06:24:08;225.00;;;61.27;;
3718;SDS011;1875;52.492;6.860;2022-11-13T06:26:37;242.47;;;67.57;;
3718;SDS011;1875;52.492;6.860;2022-11-13T06:29:06;236.77;;;66.40;;
3718;SDS011;1875;52.492;6.860;2022-11-13T06:31:36;235.80;;;64.67;;
3718;SDS011;1875;52.492;6.860;2022-11-13T06:34:04;239.33;;;66.17;;
3718;SDS011;1875;52.492;6.860;2022-11-13T06:36:33;238.13;;;65.77;;
3718;SDS011;1875;52.492;6.860;2022-11-13T06:39:03;249.27;;;67.37;;
3718;SDS011;1875;52.492;6.860;2022-11-13T06:41:33;241.70;;;70.27;;
3718;SDS011;1875;52.492;6.860;2022-11-13T06:44:01;241.57;;;68.17;;
3718;SDS011;1875;52.492;6.860;2022-11-13T06:46:29;215.40;;;60.33;;
3718;SDS011;1875;52.492;6.860;2022-11-13T06:48:57;247.73;;;72.70;;
3718;SDS011;1875;52.492;6.860;2022-11-13T06:51:25;253.40;;;68.07;;
3718;SDS011;1875;52.492;6.860;2022-11-13T06:53:54;227.60;;;66.20;;
3718;SDS011;1875;52.492;6.860;2022-11-13T06:56:22;233.20;;;66.47;;
3718;SDS011;1875;52.492;6.860;2022-11-13T06:58:51;248.63;;;73.77;;
3718;SDS011;1875;52.492;6.860;2022-11-13T07:01:20;245.33;;;70.23;;
3718;SDS011;1875;52.492;6.860;2022-11-13T07:03:49;246.50;;;66.17;;
3718;SDS011;1875;52.492;6.860;2022-11-13T07:06:18;254.43;;;68.20;;
3718;SDS011;1875;52.492;6.860;2022-11-13T07:08:47;254.17;;;75.60;;
3718;SDS011;1875;52.492;6.860;2022-11-13T07:11:15;232.07;;;65.67;;
3718;SDS011;1875;52.492;6.860;2022-11-13T07:13:43;199.93;;;53.17;;
3718;SDS011;1875;52.492;6.860;2022-11-13T07:16:13;233.93;;;65.83;;
3718;SDS011;1875;52.492;6.860;2022-11-13T07:18:43;264.90;;;78.17;;
3718;SDS011;1875;52.492;6.860;2022-11-13T07:21:11;225.00;;;61.90;;
3718;SDS011;1875;52.492;6.860;2022-11-13T07:23:39;243.67;;;67.30;;
3718;SDS011;1875;52.492;6.860;2022-11-13T07:26:55;239.37;;;68.20;;
3718;SDS011;1875;52.492;6.860;2022-11-13T07:29:23;239.13;;;67.90;;
3718;SDS011;1875;52.492;6.860;2022-11-13T07:31:50;240.57;;;66.27;;
3718;SDS011;1875;52.492;6.860;2022-11-13T07:34:18;256.67;;;66.90;;
3718;SDS011;1875;52.492;6.860;2022-11-13T07:36:46;244.70;;;70.83;;
3718;SDS011;1875;52.492;6.860;2022-11-13T07:39:13;252.10;;;70.30;;
3718;SDS011;1875;52.492;6.860;2022-11-13T07:41:41;242.60;;;69.23;;
3718;SDS011;1875;52.492;6.860;2022-11-13T07:44:10;228.13;;;56.03;;
3718;SDS011;1875;52.492;6.860;2022-11-13T07:46:58;243.63;;;69.50;;
3718;SDS011;1875;52.492;6.860;2022-11-13T07:49:25;245.37;;;72.57;;
3718;SDS011;1875;52.492;6.860;2022-11-13T07:51:53;217.57;;;56.67;;
3718;SDS011;1875;52.492;6.860;2022-11-13T07:54:21;208.80;;;57.63;;
3718;SDS011;1875;52.492;6.860;2022-11-13T07:56:48;204.37;;;53.83;;
3718;SDS011;1875;52.492;6.860;2022-11-13T07:59:17;232.13;;;64.97;;
3718;SDS011;1875;52.492;6.860;2022-11-13T08:01:45;207.43;;;55.23;;
3718;SDS011;1875;52.492;6.860;2022-11-13T08:04:13;221.63;;;61.43;;
3718;SDS011;1875;52.492;6.860;2022-11-13T08:06:40;253.13;;;69.50;;
3718;SDS011;1875;52.492;6.860;2022-11-13T08:09:08;240.50;;;65.33;;
3718;SDS011;1875;52.492;6.860;2022-11-13T08:11:36;219.97;;;64.57;;
3718;SDS011;1875;52.492;6.860;2022-11-13T08:14:04;208.80;;;57.43;;
3718;SDS011;1875;52.492;6.860;2022-11-13T08:16:33;244.07;;;69.33;;
3718;SDS011;1875;52.492;6.860;2022-11-13T08:19:00;249.07;;;72.50;;
3718;SDS011;1875;52.492;6.860;2022-11-13T08:21:28;247.20;;;69.17;;
3718;SDS011;1875;52.492;6.860;2022-11-13T08:23:56;254.33;;;66.73;;
3718;SDS011;1875;52.492;6.860;2022-11-13T08:26:24;244.07;;;69.33;;
3718;SDS011;1875;52.492;6.860;2022-11-13T08:28:51;251.70;;;72.30;;
3718;SDS011;1875;52.492;6.860;2022-11-13T08:31:19;261.97;;;67.60;;
3718;SDS011;1875;52.492;6.860;2022-11-13T08:33:48;254.93;;;72.30;;
3718;SDS011;1875;52.492;6.860;2022-11-13T08:36:16;251.07;;;71.30;;
3718;SDS011;1875;52.492;6.860;2022-11-13T08:38:43;289.17;;;79.07;;
3718;SDS011;1875;52.492;6.860;2022-11-13T08:41:11;216.33;;;57.90;;
3718;SDS011;1875;52.492;6.860;2022-11-13T08:43:39;254.67;;;72.30;;
3718;SDS011;1875;52.492;6.860;2022-11-13T08:46:06;256.37;;;70.80;;
3718;SDS011;1875;52.492;6.860;2022-11-13T08:48:34;248.23;;;62.97;;
3718;SDS011;1875;52.492;6.860;2022-11-13T08:51:04;263.23;;;78.27;;
3718;SDS011;1875;52.492;6.860;2022-11-13T08:53:32;252.27;;;72.07;;
3718;SDS011;1875;52.492;6.860;2022-11-13T08:55:59;245.23;;;66.80;;
3718;SDS011;1875;52.492;6.860;2022-11-13T08:58:28;255.07;;;69.80;;
3718;SDS011;1875;52.492;6.860;2022-11-13T09:00:58;254.30;;;71.17;;
3718;SDS011;1875;52.492;6.860;2022-11-13T09:03:26;263.43;;;71.03;;
3718;SDS011;1875;52.492;6.860;2022-11-13T09:05:54;294.37;;;85.87;;
3718;SDS011;1875;52.492;6.860;2022-11-13T09:08:23;272.40;;;73.57;;
3718;SDS011;1875;52.492;6.860;2022-11-13T09:10:51;241.17;;;68.40;;
3718;SDS011;1875;52.492;6.860;2022-11-13T09:13:19;235.40;;;57.10;;
3718;SDS011;1875;52.492;6.860;2022-11-13T09:15:46;229.17;;;62.60;;
3718;SDS011;1875;52.492;6.860;2022-11-13T09:18:14;234.40;;;63.07;;
3718;SDS011;1875;52.492;6.860;2022-11-13T09:20:42;276.30;;;79.47;;
3718;SDS011;1875;52.492;6.860;2022-11-13T09:23:09;269.50;;;70.17;;
3718;SDS011;1875;52.492;6.860;2022-11-13T09:25:39;234.43;;;67.17;;
3718;SDS011;1875;52.492;6.860;2022-11-13T09:28:06;275.20;;;81.50;;
3718;SDS011;1875;52.492;6.860;2022-11-13T09:30:36;227.93;;;62.27;;
3718;SDS011;1875;52.492;6.860;2022-11-13T09:33:04;248.73;;;70.77;;
3718;SDS011;1875;52.492;6.860;2022-11-13T09:35:32;250.77;;;66.70;;
3718;SDS011;1875;52.492;6.860;2022-11-13T09:38:00;251.70;;;68.93;;
3718;SDS011;1875;52.492;6.860;2022-11-13T09:40:36;228.30;;;59.07;;
3718;SDS011;1875;52.492;6.860;2022-11-13T09:43:11;269.90;;;76.53;;
3718;SDS011;1875;52.492;6.860;2022-11-13T09:45:46;245.77;;;67.77;;
3718;SDS011;1875;52.492;6.860;2022-11-13T09:48:18;237.20;;;59.00;;
3718;SDS011;1875;52.492;6.860;2022-11-13T09:50:50;245.87;;;59.03;;
3718;SDS011;1875;52.492;6.860;2022-11-13T09:53:18;289.17;;;76.37;;
3718;SDS011;1875;52.492;6.860;2022-11-13T09:55:51;244.53;;;62.53;;
3718;SDS011;1875;52.492;6.860;2022-11-13T09:58:24;250.07;;;68.50;;
3718;SDS011;1875;52.492;6.860;2022-11-13T10:00:57;251.20;;;64.50;;
3718;SDS011;1875;52.492;6.860;2022-11-13T10:03:29;248.50;;;68.33;;
3718;SDS011;1875;52.492;6.860;2022-11-13T10:06:24;241.13;;;61.63;;
3718;SDS011;1875;52.492;6.860;2022-11-13T10:08:56;245.23;;;67.50;;
3718;SDS011;1875;52.492;6.860;2022-11-13T10:11:35;249.60;;;64.00;;
3718;SDS011;1875;52.492;6.860;2022-11-13T10:14:15;253.97;;;64.13;;
3718;SDS011;1875;52.492;6.860;2022-11-13T10:16:44;250.23;;;60.70;;
3718;SDS011;1875;52.492;6.860;2022-11-13T10:19:17;269.83;;;59.73;;
3718;SDS011;1875;52.492;6.860;2022-11-13T10:21:48;254.80;;;68.17;;
3718;SDS011;1875;52.492;6.860;2022-11-13T10:24:39;244.47;;;61.47;;
3718;SDS011;1875;52.492;6.860;2022-11-13T10:27:10;259.83;;;69.93;;
3718;SDS011;1875;52.492;6.860;2022-11-13T10:29:38;267.93;;;71.07;;
3718;SDS011;1875;52.492;6.860;2022-11-13T10:32:14;262.23;;;68.47;;
3718;SDS011;1875;52.492;6.860;2022-11-13T10:34:44;254.77;;;65.40;;
3718;SDS011;1875;52.492;6.860;2022-11-13T10:37:19;263.90;;;71.57;;
3718;SDS011;1875;52.492;6.860;2022-11-13T10:39:53;258.03;;;65.90;;
3718;SDS011;1875;52.492;6.860;2022-11-13T10:42:23;251.67;;;61.70;;
3718;SDS011;1875;52.492;6.860;2022-11-13T10:44:55;265.67;;;74.07;;
3718;SDS011;1875;52.492;6.860;2022-11-13T10:47:24;270.80;;;69.87;;
3718;SDS011;1875;52.492;6.860;2022-11-13T10:50:18;258.80;;;63.43;;
3718;SDS011;1875;52.492;6.860;2022-11-13T10:52:47;269.23;;;68.13;;
3718;SDS011;1875;52.492;6.860;2022-11-13T10:55:19;266.77;;;73.47;;
3718;SDS011;1875;52.492;6.860;2022-11-13T10:57:58;261.83;;;65.73;;
3718;SDS011;1875;52.492;6.860;2022-11-13T11:00:29;271.03;;;69.53;;
3718;SDS011;1875;52.492;6.860;2022-11-13T11:02:58;273.57;;;72.97;;
3718;SDS011;1875;52.492;6.860;2022-11-13T11:05:26;261.33;;;68.37;;
3718;SDS011;1875;52.492;6.860;2022-11-13T11:07:55;269.37;;;71.30;;
3718;SDS011;1875;52.492;6.860;2022-11-13T11:10:27;261.23;;;70.17;;
3718;SDS011;1875;52.492;6.860;2022-11-13T11:13:00;284.57;;;76.70;;
3718;SDS011;1875;52.492;6.860;2022-11-13T11:15:36;267.20;;;66.57;;
3718;SDS011;1875;52.492;6.860;2022-11-13T11:18:08;274.20;;;71.97;;
3718;SDS011;1875;52.492;6.860;2022-11-13T11:20:46;280.03;;;75.80;;
3718;SDS011;1875;52.492;6.860;2022-11-13T11:23:18;272.43;;;67.37;;
3718;SDS011;1875;52.492;6.860;2022-11-13T11:25:50;279.23;;;72.33;;
3718;SDS011;1875;52.492;6.860;2022-11-13T11:28:26;269.57;;;66.03;;
3718;SDS011;1875;52.492;6.860;2022-11-13T11:30:58;262.10;;;63.77;;
3718;SDS011;1875;52.492;6.860;2022-11-13T11:33:31;268.00;;;64.93;;
3718;SDS011;1875;52.492;6.860;2022-11-13T11:36:03;265.60;;;64.93;;
3718;SDS011;1875;52.492;6.860;2022-11-13T11:38:36;274.53;;;73.17;;
3718;SDS011;1875;52.492;6.860;2022-11-13T11:41:09;275.37;;;68.77;;
3718;SDS011;1875;52.492;6.860;2022-11-13T11:43:44;279.33;;;69.73;;
3718;SDS011;1875;52.492;6.860;2022-11-13T11:46:16;265.40;;;63.53;;
3718;SDS011;1875;52.492;6.860;2022-11-13T11:48:48;283.23;;;70.23;;
3718;SDS011;1875;52.492;6.860;2022-11-13T11:51:19;269.70;;;63.47;;
3718;SDS011;1875;52.492;6.860;2022-11-13T11:54:23;272.73;;;64.23;;
3718;SDS011;1875;52.492;6.860;2022-11-13T11:56:57;273.23;;;63.13;;
3718;SDS011;1875;52.492;6.860;2022-11-13T11:59:30;275.60;;;65.50;;
3718;SDS011;1875;52.492;6.860;2022-11-13T12:02:14;271.23;;;61.17;;
3718;SDS011;1875;52.492;6.860;2022-11-13T12:05:10;278.50;;;64.67;;
3718;SDS011;1875;52.492;6.860;2022-11-13T12:07:47;278.37;;;65.20;;
3718;SDS011;1875;52.492;6.860;2022-11-13T12:10:25;283.23;;;68.27;;
3718;SDS011;1875;52.492;6.860;2022-11-13T12:12:59;295.77;;;73.33;;
3718;SDS011;1875;52.492;6.860;2022-11-13T12:15:42;319.07;;;76.33;;
3718;SDS011;1875;52.492;6.860;2022-11-13T12:18:18;253.13;;;60.23;;
3718;SDS011;1875;52.492;6.860;2022-11-13T12:20:55;267.63;;;60.53;;
3718;SDS011;1875;52.492;6.860;2022-11-13T12:23:31;148.83;;;31.13;;
3718;SDS011;1875;52.492;6.860;2022-11-13T12:26:07;183.23;;;38.87;;
3718;SDS011;1875;52.492;6.860;2022-11-13T12:30:10;171.70;;;35.10;;
3718;SDS011;1875;52.492;6.860;2022-11-13T12:32:47;131.37;;;26.60;;
3718;SDS011;1875;52.492;6.860;2022-11-13T12:35:26;129.07;;;26.63;;
3718;SDS011;1875;52.492;6.860;2022-11-13T12:37:54;143.67;;;30.73;;
3718;SDS011;1875;52.492;6.860;2022-11-13T12:40:26;135.20;;;26.40;;
3718;SDS011;1875;52.492;6.860;2022-11-13T12:43:11;152.93;;;31.73;;
3718;SDS011;1875;52.492;6.860;2022-11-13T12:45:51;119.40;;;22.63;;
3718;SDS011;1875;52.492;6.860;2022-11-13T12:48:20;144.00;;;28.03;;
3718;SDS011;1875;52.492;6.860;2022-11-13T12:50:57;157.20;;;30.97;;
3718;SDS011;1875;52.492;6.860;2022-11-13T12:53:26;114.73;;;23.03;;
3718;SDS011;1875;52.492;6.860;2022-11-13T12:55:57;123.70;;;24.13;;
3718;SDS011;1875;52.492;6.860;2022-11-13T12:58:26;122.40;;;27.53;;
3718;SDS011;1875;52.492;6.860;2022-11-13T13:00:59;209.00;;;45.60;;
3718;SDS011;1875;52.492;6.860;2022-11-13T13:03:37;120.13;;;34.90;;
3718;SDS011;1875;52.492;6.860;2022-11-13T13:06:15;127.07;;;38.03;;
3718;SDS011;1875;52.492;6.860;2022-11-13T13:08:55;127.50;;;32.87;;
3718;SDS011;1875;52.492;6.860;2022-11-13T13:11:30;115.30;;;41.87;;
3718;SDS011;1875;52.492;6.860;2022-11-13T13:14:09;112.53;;;24.83;;
3718;SDS011;1875;52.492;6.860;2022-11-13T13:16:48;188.73;;;38.47;;
3718;SDS011;1875;52.492;6.860;2022-11-13T13:19:23;115.27;;;23.83;;
3718;SDS011;1875;52.492;6.860;2022-11-13T13:21:52;95.43;;;17.03;;
3718;SDS011;1875;52.492;6.860;2022-11-13T13:24:26;108.90;;;24.33;;
3718;SDS011;1875;52.492;6.860;2022-11-13T13:26:55;96.30;;;33.97;;
3718;SDS011;1875;52.492;6.860;2022-11-13T13:29:23;191.13;;;36.20;;
3718;SDS011;1875;52.492;6.860;2022-11-13T13:31:58;113.90;;;21.13;;
3718;SDS011;1875;52.492;6.860;2022-11-13T13:34:39;103.77;;;28.80;;
3718;SDS011;1875;52.492;6.860;2022-11-13T13:37:16;114.53;;;32.33;;
3718;SDS011;1875;52.492;6.860;2022-11-13T13:39:50;102.23;;;21.20;;
3718;SDS011;1875;52.492;6.860;2022-11-13T13:42:31;112.67;;;25.37;;
3718;SDS011;1875;52.492;6.860;2022-11-13T13:45:11;101.93;;;26.90;;
3718;SDS011;1875;52.492;6.860;2022-11-13T13:47:52;100.13;;;21.93;;
3718;SDS011;1875;52.492;6.860;2022-11-13T13:50:21;110.37;;;23.50;;
3718;SDS011;1875;52.492;6.860;2022-11-13T13:52:51;98.13;;;18.53;;
3718;SDS011;1875;52.492;6.860;2022-11-13T13:55:21;128.00;;;51.93;;
3718;SDS011;1875;52.492;6.860;2022-11-13T13:57:54;84.03;;;16.23;;
3718;SDS011;1875;52.492;6.860;2022-11-13T14:00:24;104.77;;;20.30;;
3718;SDS011;1875;52.492;6.860;2022-11-13T14:02:53;100.40;;;20.67;;
3718;SDS011;1875;52.492;6.860;2022-11-13T14:05:27;96.97;;;27.23;;
3718;SDS011;1875;52.492;6.860;2022-11-13T14:07:56;180.27;;;34.33;;
3718;SDS011;1875;52.492;6.860;2022-11-13T14:10:25;112.23;;;22.70;;
3718;SDS011;1875;52.492;6.860;2022-11-13T14:12:54;102.20;;;19.70;;
3718;SDS011;1875;52.492;6.860;2022-11-13T14:15:23;103.27;;;35.53;;
3718;SDS011;1875;52.492;6.860;2022-11-13T14:18:04;102.30;;;28.33;;
3718;SDS011;1875;52.492;6.860;2022-11-13T14:20:36;96.13;;;41.63;;
3718;SDS011;1875;52.492;6.860;2022-11-13T14:23:08;111.93;;;33.20;;
3718;SDS011;1875;52.492;6.860;2022-11-13T14:25:37;110.30;;;36.23;;
3718;SDS011;1875;52.492;6.860;2022-11-13T14:28:11;140.23;;;28.57;;
3718;SDS011;1875;52.492;6.860;2022-11-13T14:30:40;112.73;;;22.83;;
3718;SDS011;1875;52.492;6.860;2022-11-13T14:33:09;103.40;;;19.30;;
3718;SDS011;1875;52.492;6.860;2022-11-13T14:35:40;142.27;;;34.77;;
3718;SDS011;1875;52.492;6.860;2022-11-13T14:38:15;109.07;;;24.43;;
3718;SDS011;1875;52.492;6.860;2022-11-13T14:40:45;120.00;;;27.43;;
3718;SDS011;1875;52.492;6.860;2022-11-13T14:43:16;111.30;;;24.03;;
3718;SDS011;1875;52.492;6.860;2022-11-13T14:45:54;113.63;;;28.30;;
3718;SDS011;1875;52.492;6.860;2022-11-13T14:48:25;108.10;;;21.33;;
3718;SDS011;1875;52.492;6.860;2022-11-13T14:50:54;111.10;;;29.10;;
3718;SDS011;1875;52.492;6.860;2022-11-13T14:53:27;84.70;;;23.80;;
3718;SDS011;1875;52.492;6.860;2022-11-13T14:55:58;100.93;;;27.47;;
3718;SDS011;1875;52.492;6.860;2022-11-13T14:58:28;111.37;;;25.77;;
3718;SDS011;1875;52.492;6.860;2022-11-13T15:00:57;207.80;;;46.33;;